Time;durP1;ratioP1;P1;durP2;ratioP2;P2;SDS_P1;SDS_P2;PMS_P1;PMS_P2;Temp;Humidity;BMP_temperature;BMP_pressure;BME280_temperature;BME280_humidity;BME280_pressure;Samples;Min_cycle;Max_cycle;Signal;HPM_P1;HPM_P2
2021/03/16 00:01:09;;;;;;;;;;;12.30;63.10;;;;;;2096095;28;1033;-47
2021/03/16 00:02:44;;;;;;;;;;;12.30;63.10;;;;;;2096799;28;714;-45
2021/03/16 00:04:04;;;;;;;;;;;12.20;63.10;;;;;;2094277;28;786;-50
2021/03/16 00:05:41;;;;;;;;;;;12.20;63.00;;;;;;2096137;28;725;-46
2021/03/16 00:07:03;;;;;;;;;;;12.20;63.00;;;;;;2095027;28;763;-47
2021/03/16 00:08:22;;;;;;;;;;;12.20;63.10;;;;;;2099021;28;1399;-49
2021/03/16 00:09:42;;;;;;;;;;;12.20;63.10;;;;;;2099191;28;708;-51
2021/03/16 00:11:01;;;;;;;;;;;12.20;63.10;;;;;;2098998;28;724;-47
2021/03/16 00:12:20;;;;;;;;;;;12.20;63.10;;;;;;2099341;28;736;-48
2021/03/16 00:13:39;;;;;;;;;;;12.20;63.10;;;;;;2098739;28;1906;-47
2021/03/16 00:14:58;;;;;;;;;;;12.20;63.10;;;;;;2097999;28;739;-54
2021/03/16 00:16:19;;;;;;;;;;;12.20;63.20;;;;;;2099091;28;725;-48
2021/03/16 00:17:38;;;;;;;;;;;12.20;63.20;;;;;;2098315;28;1314;-48
2021/03/16 00:18:57;;;;;;;;;;;12.20;63.20;;;;;;2098945;28;761;-46
2021/03/16 00:20:16;;;;;;;;;;;12.20;63.30;;;;;;2098968;28;695;-48
2021/03/16 00:21:36;;;;;;;;;;;12.20;64.10;;;;;;2099165;28;848;-48
2021/03/16 00:22:55;;;;;;;;;;;12.20;64.10;;;;;;2098901;28;773;-47
2021/03/16 00:24:14;;;;;;;;;;;12.20;63.40;;;;;;2098658;28;745;-46
2021/03/16 00:25:33;;;;;;;;;;;12.20;63.40;;;;;;2097538;28;760;-48
2021/03/16 00:26:52;;;;;;;;;;;12.10;63.30;;;;;;2098615;28;713;-46
2021/03/16 00:28:12;;;;;;;;;;;12.20;63.40;;;;;;2093434;28;1511;-48
2021/03/16 00:29:31;;;;;;;;;;;12.20;63.40;;;;;;2089243;28;977;-49
2021/03/16 00:30:50;;;;;;;;;;;12.20;63.40;;;;;;2098519;28;785;-47
2021/03/16 00:32:09;;;;;;;;;;;12.20;63.40;;;;;;2098687;28;713;-46
2021/03/16 00:33:29;;;;;;;;;;;12.20;63.40;;;;;;2098079;28;1975;-46
2021/03/16 00:34:48;;;;;;;;;;;12.20;63.40;;;;;;2097769;28;734;-49
2021/03/16 00:36:07;;;;;;;;;;;12.10;63.30;;;;;;2088010;28;761;-47
2021/03/16 00:37:27;;;;;;;;;;;12.10;63.30;;;;;;2095068;28;725;-47
2021/03/16 00:38:46;;;;;;;;;;;12.10;63.40;;;;;;2097992;28;763;-46
2021/03/16 00:40:05;;;;;;;;;;;12.10;63.40;;;;;;2093491;28;739;-46
2021/03/16 00:41:24;;;;;;;;;;;12.10;63.40;;;;;;2095382;28;750;-47
2021/03/16 00:42:43;;;;;;;;;;;12.10;63.40;;;;;;2097893;28;743;-50
2021/03/16 00:44:03;;;;;;;;;;;12.10;64.20;;;;;;2094718;28;774;-49
2021/03/16 00:45:22;;;;;;;;;;;12.10;63.50;;;;;;2097672;28;753;-47
2021/03/16 00:46:41;;;;;;;;;;;12.10;63.50;;;;;;2097818;28;726;-48
2021/03/16 00:48:00;;;;;;;;;;;12.10;63.50;;;;;;2086300;28;1459;-50
2021/03/16 00:49:20;;;;;;;;;;;12.10;63.60;;;;;;2086466;28;709;-48
2021/03/16 00:50:39;;;;;;;;;;;12.10;63.60;;;;;;2091190;28;715;-52
2021/03/16 00:51:58;;;;;;;;;;;12.10;63.60;;;;;;2097714;28;956;-47
2021/03/16 00:53:18;;;;;;;;;;;12.10;63.60;;;;;;2094600;28;1901;-47
2021/03/16 00:54:41;;;;;;;;;;;12.10;63.60;;;;;;2094936;28;799;-49
2021/03/16 00:56:00;;;;;;;;;;;12.10;63.70;;;;;;2098241;28;803;-48
2021/03/16 00:57:22;;;;;;;;;;;12.10;63.60;;;;;;2096082;28;938;-47
2021/03/16 00:58:41;;;;;;;;;;;12.10;63.60;;;;;;2092644;28;920;-47
2021/03/16 01:00:00;;;;;;;;;;;12.10;63.70;;;;;;2094279;28;1135;-48
2021/03/16 01:01:19;;;;;;;;;;;12.10;63.70;;;;;;2098159;28;696;-49
2021/03/16 01:02:39;;;;;;;;;;;12.10;63.60;;;;;;2098404;28;708;-49
2021/03/16 01:03:58;;;;;;;;;;;12.10;63.70;;;;;;2097666;28;736;-48
2021/03/16 01:05:17;;;;;;;;;;;12.10;63.70;;;;;;2097359;28;716;-46
2021/03/16 01:06:36;;;;;;;;;;;12.10;63.70;;;;;;2098280;28;712;-50
2021/03/16 01:07:55;;;;;;;;;;;12.10;63.70;;;;;;2097746;28;1321;-47
2021/03/16 01:09:14;;;;;;;;;;;12.10;63.70;;;;;;2096804;28;1053;-49
2021/03/16 01:10:34;;;;;;;;;;;12.00;64.40;;;;;;2097615;28;747;-49
2021/03/16 01:11:53;;;;;;;;;;;12.00;64.40;;;;;;2098129;28;725;-48
2021/03/16 01:13:12;;;;;;;;;;;12.00;63.70;;;;;;2097918;28;1914;-47
2021/03/16 01:14:31;;;;;;;;;;;12.00;63.70;;;;;;2098357;28;762;-50
2021/03/16 01:15:50;;;;;;;;;;;12.00;63.70;;;;;;2087877;28;1257;-46
2021/03/16 01:17:10;;;;;;;;;;;12.00;63.80;;;;;;2090883;28;1407;-49
2021/03/16 01:18:29;;;;;;;;;;;12.00;63.80;;;;;;2098078;28;1388;-48
2021/03/16 01:19:48;;;;;;;;;;;12.00;64.00;;;;;;2098187;28;797;-47
2021/03/16 01:21:08;;;;;;;;;;;12.00;63.90;;;;;;2097968;28;805;-46
2021/03/16 01:22:27;;;;;;;;;;;12.00;63.90;;;;;;2098440;28;729;-48
2021/03/16 01:23:46;;;;;;;;;;;12.00;63.80;;;;;;2098162;28;738;-50
2021/03/16 01:25:06;;;;;;;;;;;12.00;63.90;;;;;;2097550;28;727;-46
2021/03/16 01:26:25;;;;;;;;;;;12.00;63.90;;;;;;2097310;28;791;-51
2021/03/16 01:27:44;;;;;;;;;;;12.00;64.00;;;;;;2095616;28;1429;-50
2021/03/16 01:29:04;;;;;;;;;;;12.00;64.00;;;;;;2093131;28;1053;-49
2021/03/16 01:30:24;;;;;;;;;;;12.00;64.70;;;;;;2097156;28;1173;-49
2021/03/16 01:31:43;;;;;;;;;;;12.00;64.00;;;;;;2098162;28;698;-48
2021/03/16 01:33:02;;;;;;;;;;;12.00;64.00;;;;;;2090619;28;1089;-50
2021/03/16 01:34:21;;;;;;;;;;;12.00;64.10;;;;;;2086768;28;1272;-49
2021/03/16 01:35:41;;;;;;;;;;;12.00;64.10;;;;;;2096388;28;1133;-46
2021/03/16 01:37:00;;;;;;;;;;;12.00;64.10;;;;;;2090758;28;1254;-48
2021/03/16 01:38:20;;;;;;;;;;;12.00;64.10;;;;;;2087221;28;1429;-46
2021/03/16 01:39:39;;;;;;;;;;;12.00;64.00;;;;;;2091720;28;1326;-48
2021/03/16 01:40:58;;;;;;;;;;;12.00;64.10;;;;;;2088923;28;1315;-49
2021/03/16 01:42:17;;;;;;;;;;;12.00;64.20;;;;;;2091867;28;1201;-48
2021/03/16 01:43:37;;;;;;;;;;;12.00;64.20;;;;;;2088686;28;1169;-47
2021/03/16 01:44:56;;;;;;;;;;;12.00;65.00;;;;;;2088404;28;1282;-47
2021/03/16 01:46:17;;;;;;;;;;;12.00;65.00;;;;;;2092376;28;1388;-46
2021/03/16 01:47:38;;;;;;;;;;;11.90;64.20;;;;;;2092187;28;1426;-47
2021/03/16 01:48:57;;;;;;;;;;;12.00;64.30;;;;;;2089302;28;1282;-46
2021/03/16 01:50:17;;;;;;;;;;;12.00;64.30;;;;;;2082935;28;1437;-46
2021/03/16 01:51:37;;;;;;;;;;;12.00;64.30;;;;;;2086660;28;1432;-46
2021/03/16 01:52:57;;;;;;;;;;;12.00;64.30;;;;;;2091005;28;1222;-46
2021/03/16 01:54:16;;;;;;;;;;;11.90;64.10;;;;;;2084947;28;1463;-47
2021/03/16 01:55:35;;;;;;;;;;;11.90;64.20;;;;;;2096242;28;1447;-46
2021/03/16 01:56:56;;;;;;;;;;;11.90;64.20;;;;;;2087441;28;1381;-47
2021/03/16 01:58:34;;;;;;;;;;;11.90;64.20;;;;;;2091694;28;1985;-46
2021/03/16 02:00:12;;;;;;;;;;;11.90;64.10;;;;;;2095289;28;1401;-46
2021/03/16 02:01:51;;;;;;;;;;;11.90;64.20;;;;;;2094523;28;1048;-49
2021/03/16 02:03:29;;;;;;;;;;;11.90;64.90;;;;;;2089076;28;1265;-51
2021/03/16 02:05:07;;;;;;;;;;;11.90;64.20;;;;;;2089909;28;1419;-47
2021/03/16 02:07:04;;;;;;;;;;;11.90;64.20;;;;;;2091440;28;1393;-47
2021/03/16 02:09:05;;;;;;;;;;;11.90;64.20;;;;;;2092995;28;1271;-50
2021/03/16 02:11:02;;;;;;;;;;;11.90;64.30;;;;;;2095092;28;1286;-50
2021/03/16 02:12:47;;;;;;;;;;;11.90;64.30;;;;;;2090782;28;1302;-48
2021/03/16 02:14:27;;;;;;;;;;;11.90;64.30;;;;;;2091289;28;1287;-53
2021/03/16 02:16:10;;;;;;;;;;;11.90;64.40;;;;;;2093103;28;1290;-53
2021/03/16 02:17:48;;;;;;;;;;;11.90;64.40;;;;;;2093757;28;1512;-53
2021/03/16 02:19:37;;;;;;;;;;;11.90;64.40;;;;;;2096490;28;1310;-47
2021/03/16 02:21:21;;;;;;;;;;;11.90;64.40;;;;;;2094425;28;1129;-47
2021/03/16 02:22:59;;;;;;;;;;;11.80;64.20;;;;;;2091413;28;1106;-51
2021/03/16 02:24:38;;;;;;;;;;;11.80;64.30;;;;;;2089591;28;1315;-47
2021/03/16 02:26:20;;;;;;;;;;;11.90;64.30;;;;;;2096475;28;1190;-49
2021/03/16 02:28:07;;;;;;;;;;;11.80;64.40;;;;;;2093499;28;1420;-48
2021/03/16 02:29:46;;;;;;;;;;;11.80;64.40;;;;;;2096266;28;1366;-48
2021/03/16 02:31:24;;;;;;;;;;;11.80;64.50;;;;;;2096197;28;1340;-47
2021/03/16 02:33:02;;;;;;;;;;;11.80;64.30;;;;;;2092151;28;1267;-50
2021/03/16 02:34:41;;;;;;;;;;;11.80;64.30;;;;;;2082800;28;1407;-50
2021/03/16 02:36:19;;;;;;;;;;;11.80;64.40;;;;;;2094272;28;1421;-49
2021/03/16 02:37:57;;;;;;;;;;;11.80;64.40;;;;;;2093110;28;1477;-50
2021/03/16 02:39:35;;;;;;;;;;;11.80;64.40;;;;;;2094614;28;1429;-49
2021/03/16 02:41:14;;;;;;;;;;;11.80;64.50;;;;;;2083995;28;1302;-47
2021/03/16 02:42:52;;;;;;;;;;;11.80;64.50;;;;;;2093843;28;1331;-48
2021/03/16 02:44:31;;;;;;;;;;;11.80;64.50;;;;;;2095365;28;1464;-50
2021/03/16 02:46:09;;;;;;;;;;;11.80;64.50;;;;;;2092476;28;1448;-47
2021/03/16 02:47:47;;;;;;;;;;;11.80;64.50;;;;;;2096147;28;1695;-52
2021/03/16 02:49:25;;;;;;;;;;;11.80;64.50;;;;;;2096020;28;1122;-47
2021/03/16 02:51:03;;;;;;;;;;;11.80;64.60;;;;;;2094575;28;1397;-50
2021/03/16 02:52:41;;;;;;;;;;;11.80;65.20;;;;;;2091974;28;1279;-50
2021/03/16 02:54:20;;;;;;;;;;;11.80;64.50;;;;;;2096709;28;1497;-49
2021/03/16 02:55:58;;;;;;;;;;;11.80;64.60;;;;;;2090516;28;1417;-49
2021/03/16 02:57:36;;;;;;;;;;;11.80;64.60;;;;;;2089807;28;1415;-48
2021/03/16 02:59:14;;;;;;;;;;;11.80;65.30;;;;;;2088802;28;1035;-50
2021/03/16 03:00:52;;;;;;;;;;;11.80;64.60;;;;;;2091237;28;1520;-48
2021/03/16 03:02:30;;;;;;;;;;;11.70;64.50;;;;;;2095415;28;1422;-46
2021/03/16 03:04:09;;;;;;;;;;;11.70;65.20;;;;;;2092673;28;1255;-48
2021/03/16 03:05:47;;;;;;;;;;;11.70;64.60;;;;;;2092255;28;1429;-46
2021/03/16 03:07:25;;;;;;;;;;;11.70;64.60;;;;;;2087435;28;1265;-47
2021/03/16 03:09:03;;;;;;;;;;;11.70;64.60;;;;;;2093561;28;1444;-49
2021/03/16 03:10:41;;;;;;;;;;;11.70;64.60;;;;;;2095850;28;1424;-49
2021/03/16 03:12:19;;;;;;;;;;;11.70;64.60;;;;;;2094123;28;1381;-48
2021/03/16 03:13:58;;;;;;;;;;;11.70;64.60;;;;;;2090936;28;1968;-48
2021/03/16 03:15:36;;;;;;;;;;;11.70;65.30;;;;;;2088162;28;1400;-51
2021/03/16 03:17:14;;;;;;;;;;;11.70;64.60;;;;;;2089979;28;1276;-54
2021/03/16 03:18:52;;;;;;;;;;;11.70;64.70;;;;;;2087917;28;1349;-49
2021/03/16 03:20:33;;;;;;;;;;;11.70;64.60;;;;;;2091112;28;1238;-48
2021/03/16 03:22:21;;;;;;;;;;;11.70;64.70;;;;;;2091787;28;1219;-50
2021/03/16 03:24:02;;;;;;;;;;;11.70;64.70;;;;;;2093224;28;1327;-48
2021/03/16 03:25:40;;;;;;;;;;;11.70;64.70;;;;;;2090458;28;1214;-48
2021/03/16 03:27:22;;;;;;;;;;;11.70;64.70;;;;;;2088808;28;1427;-49
2021/03/16 03:29:00;;;;;;;;;;;11.70;64.70;;;;;;2088175;28;1406;-48
2021/03/16 03:30:48;;;;;;;;;;;11.70;64.70;;;;;;2083665;28;1346;-48
2021/03/16 03:32:27;;;;;;;;;;;11.70;65.50;;;;;;2082675;28;1229;-47
2021/03/16 03:34:05;;;;;;;;;;;11.70;64.70;;;;;;2084197;28;1977;-48
2021/03/16 03:35:43;;;;;;;;;;;11.70;64.70;;;;;;2091786;28;1301;-49
2021/03/16 03:37:22;;;;;;;;;;;11.70;64.70;;;;;;2089895;28;1870;-47
2021/03/16 03:39:00;;;;;;;;;;;11.70;64.70;;;;;;2090102;28;1313;-48
2021/03/16 03:40:38;;;;;;;;;;;11.70;65.60;;;;;;2094801;28;1310;-50
2021/03/16 03:42:17;;;;;;;;;;;11.70;64.80;;;;;;2092847;28;1349;-48
2021/03/16 03:43:56;;;;;;;;;;;11.70;64.80;;;;;;2094242;28;1300;-49
2021/03/16 03:45:34;;;;;;;;;;;11.70;64.80;;;;;;2081409;28;1194;-49
2021/03/16 03:47:12;;;;;;;;;;;11.70;64.80;;;;;;2093477;28;1323;-49
2021/03/16 03:48:50;;;;;;;;;;;11.70;64.80;;;;;;2097963;28;1333;-49
2021/03/16 03:50:28;;;;;;;;;;;11.60;64.70;;;;;;2095515;28;1338;-50
2021/03/16 03:52:07;;;;;;;;;;;11.50;64.60;;;;;;2089695;28;1077;-51
2021/03/16 03:53:45;;;;;;;;;;;11.70;64.80;;;;;;2094896;28;1902;-48
2021/03/16 03:55:23;;;;;;;;;;;11.60;64.70;;;;;;2095818;28;1042;-49
2021/03/16 03:57:02;;;;;;;;;;;11.60;65.40;;;;;;2095951;28;1034;-50
2021/03/16 03:58:40;;;;;;;;;;;11.60;64.70;;;;;;2094941;28;1357;-50
2021/03/16 04:00:19;;;;;;;;;;;11.60;64.80;;;;;;2092016;28;1031;-47
2021/03/16 04:01:57;;;;;;;;;;;11.60;64.80;;;;;;2097118;28;1061;-49
2021/03/16 04:03:35;;;;;;;;;;;11.60;64.80;;;;;;2093867;28;844;-49
2021/03/16 04:05:13;;;;;;;;;;;11.60;64.80;;;;;;2091826;28;1139;-47
2021/03/16 04:06:51;;;;;;;;;;;11.60;64.80;;;;;;2092068;28;947;-50
2021/03/16 04:08:29;;;;;;;;;;;11.60;64.90;;;;;;2091087;28;1510;-54
2021/03/16 04:10:10;;;;;;;;;;;11.60;64.90;;;;;;2097925;28;1397;-51
2021/03/16 04:11:48;;;;;;;;;;;11.60;64.90;;;;;;2094191;28;1119;-50
2021/03/16 04:13:27;;;;;;;;;;;11.60;64.90;;;;;;2096721;28;1906;-48
2021/03/16 04:15:09;;;;;;;;;;;11.60;64.90;;;;;;2089192;28;1278;-47
2021/03/16 04:16:47;;;;;;;;;;;11.60;64.90;;;;;;2091836;28;1399;-49
2021/03/16 04:18:25;;;;;;;;;;;11.60;64.90;;;;;;2097846;28;1436;-49
2021/03/16 04:20:05;;;;;;;;;;;11.60;65.00;;;;;;2097192;28;1210;-46
2021/03/16 04:21:42;;;;;;;;;;;11.60;65.00;;;;;;2094965;28;1293;-49
2021/03/16 04:23:20;;;;;;;;;;;11.60;65.70;;;;;;2091474;28;1317;-48
2021/03/16 04:24:59;;;;;;;;;;;11.60;65.10;;;;;;2095522;28;1329;-47
2021/03/16 04:26:37;;;;;;;;;;;11.60;65.50;;;;;;2081527;28;2015;-48
2021/03/16 04:28:15;;;;;;;;;;;11.60;65.60;;;;;;2094648;28;1388;-50
2021/03/16 04:29:53;;;;;;;;;;;11.60;65.90;;;;;;2093474;28;1358;-49
2021/03/16 04:31:31;;;;;;;;;;;11.70;65.70;;;;;;2097365;28;1250;-49
2021/03/16 04:33:09;;;;;;;;;;;11.60;65.10;;;;;;2091334;28;1179;-49
2021/03/16 04:34:47;;;;;;;;;;;11.60;66.10;;;;;;2092996;28;1349;-52
2021/03/16 04:36:25;;;;;;;;;;;11.60;65.50;;;;;;2085285;28;1525;-50
2021/03/16 04:38:04;;;;;;;;;;;11.60;65.70;;;;;;2095328;28;1432;-49
2021/03/16 04:39:42;;;;;;;;;;;11.60;66.50;;;;;;2096084;28;1284;-50
2021/03/16 04:41:20;;;;;;;;;;;11.60;65.80;;;;;;2095442;28;1109;-50
2021/03/16 04:42:58;;;;;;;;;;;11.60;65.90;;;;;;2094650;28;1367;-48
2021/03/16 04:44:36;;;;;;;;;;;11.60;65.90;;;;;;2093908;28;1426;-49
2021/03/16 04:46:16;;;;;;;;;;;11.60;66.90;;;;;;2096606;28;1399;-47
2021/03/16 04:47:54;;;;;;;;;;;11.60;66.10;;;;;;2093050;28;1419;-49
2021/03/16 04:49:32;;;;;;;;;;;11.60;66.10;;;;;;2096422;28;1344;-47
2021/03/16 04:51:10;;;;;;;;;;;11.60;65.60;;;;;;2096657;28;1020;-48
2021/03/16 04:52:49;;;;;;;;;;;11.60;66.20;;;;;;2087305;28;1276;-51
2021/03/16 04:54:27;;;;;;;;;;;11.60;66.20;;;;;;2095047;28;1385;-50
2021/03/16 04:56:05;;;;;;;;;;;11.50;66.10;;;;;;2095453;28;1308;-51
2021/03/16 04:57:43;;;;;;;;;;;11.50;66.10;;;;;;2095481;28;1498;-50
2021/03/16 04:59:21;;;;;;;;;;;11.50;66.20;;;;;;2091379;28;1315;-50
2021/03/16 05:00:59;;;;;;;;;;;11.60;66.20;;;;;;2090346;28;1275;-53
2021/03/16 05:02:37;;;;;;;;;;;11.60;67.20;;;;;;2092399;28;1302;-51
2021/03/16 05:04:16;;;;;;;;;;;11.60;66.50;;;;;;2093176;28;903;-53
2021/03/16 05:05:54;;;;;;;;;;;11.60;66.20;;;;;;2088895;28;1405;-47
2021/03/16 05:07:32;;;;;;;;;;;11.60;66.20;;;;;;2090309;28;1000;-46
2021/03/16 05:09:12;;;;;;;;;;;11.60;67.00;;;;;;2092514;28;1038;-50
2021/03/16 05:10:50;;;;;;;;;;;11.60;66.20;;;;;;2083308;28;1277;-51
2021/03/16 05:12:28;;;;;;;;;;;11.60;66.40;;;;;;2087318;28;1290;-52
2021/03/16 05:14:06;;;;;;;;;;;11.60;66.70;;;;;;2091232;28;1902;-49
2021/03/16 05:15:44;;;;;;;;;;;11.60;66.70;;;;;;2092679;28;1294;-50
2021/03/16 05:17:22;;;;;;;;;;;11.50;66.80;;;;;;2088591;28;1002;-48
2021/03/16 05:19:01;;;;;;;;;;;11.50;66.80;;;;;;2089995;28;1114;-51
2021/03/16 05:20:40;;;;;;;;;;;11.50;66.90;;;;;;2079473;28;1286;-47
2021/03/16 05:22:18;;;;;;;;;;;11.50;66.90;;;;;;2088571;28;1217;-46
2021/03/16 05:23:57;;;;;;;;;;;11.50;67.00;;;;;;2092638;28;1415;-51
2021/03/16 05:25:35;;;;;;;;;;;11.50;66.90;;;;;;2083996;28;1865;-48
2021/03/16 05:27:13;;;;;;;;;;;11.50;67.00;;;;;;2089364;28;1223;-48
2021/03/16 05:28:51;;;;;;;;;;;11.50;67.00;;;;;;2087403;28;1228;-49
2021/03/16 05:30:29;;;;;;;;;;;11.50;67.70;;;;;;2090542;28;1210;-50
2021/03/16 05:32:08;;;;;;;;;;;11.50;67.00;;;;;;2088759;28;1307;-48
2021/03/16 05:33:46;;;;;;;;;;;11.50;66.90;;;;;;2089865;28;1887;-46
2021/03/16 05:35:24;;;;;;;;;;;11.50;67.00;;;;;;2089149;28;1184;-49
2021/03/16 05:37:02;;;;;;;;;;;11.50;66.90;;;;;;2090216;28;1174;-46
2021/03/16 05:38:40;;;;;;;;;;;11.50;67.00;;;;;;2091560;28;2005;-46
2021/03/16 05:40:18;;;;;;;;;;;11.50;66.90;;;;;;2089904;28;1118;-46
2021/03/16 05:41:56;;;;;;;;;;;11.50;66.90;;;;;;2088683;28;1279;-51
2021/03/16 05:43:35;;;;;;;;;;;11.50;66.90;;;;;;2087739;28;1178;-52
2021/03/16 05:45:13;;;;;;;;;;;11.50;67.00;;;;;;2089577;28;1305;-49
2021/03/16 05:46:51;;;;;;;;;;;11.50;67.00;;;;;;2091798;28;1165;-48
2021/03/16 05:48:29;;;;;;;;;;;11.50;67.70;;;;;;2089140;28;1389;-49
2021/03/16 05:50:07;;;;;;;;;;;11.40;66.70;;;;;;2090152;28;1177;-49
2021/03/16 05:51:45;;;;;;;;;;;11.40;66.70;;;;;;2090327;28;1264;-50
2021/03/16 05:53:23;;;;;;;;;;;11.40;66.80;;;;;;2088227;28;1240;-45
2021/03/16 05:55:02;;;;;;;;;;;11.40;66.70;;;;;;2080705;28;1310;-48
2021/03/16 05:56:40;;;;;;;;;;;11.40;66.70;;;;;;2079866;28;1364;-47
2021/03/16 05:58:18;;;;;;;;;;;11.40;66.70;;;;;;2091923;28;1423;-46
2021/03/16 05:59:56;;;;;;;;;;;11.40;67.50;;;;;;2080108;28;1432;-49
2021/03/16 06:01:34;;;;;;;;;;;11.40;66.70;;;;;;2091526;28;1176;-50
2021/03/16 06:03:12;;;;;;;;;;;11.40;66.70;;;;;;2089212;28;1176;-49
2021/03/16 06:04:50;;;;;;;;;;;11.40;66.70;;;;;;2089257;28;1227;-47
2021/03/16 06:06:32;;;;;;;;;;;11.40;66.60;;;;;;2089729;28;1116;-50
2021/03/16 06:08:10;;;;;;;;;;;11.40;66.70;;;;;;2088861;28;1424;-48
2021/03/16 06:09:49;;;;;;;;;;;11.40;66.70;;;;;;2091826;28;1489;-49
2021/03/16 06:11:27;;;;;;;;;;;11.40;66.80;;;;;;2092836;28;1296;-48
2021/03/16 06:13:11;;;;;;;;;;;11.40;66.80;;;;;;2089866;28;1360;-48
2021/03/16 06:14:49;;;;;;;;;;;11.40;66.70;;;;;;2089502;28;1352;-53
2021/03/16 06:16:27;;;;;;;;;;;11.40;66.70;;;;;;2088885;28;1045;-48
2021/03/16 06:18:05;;;;;;;;;;;11.40;66.70;;;;;;2086368;28;1455;-53
2021/03/16 06:19:43;;;;;;;;;;;11.40;67.40;;;;;;2092494;28;1026;-49
2021/03/16 06:21:22;;;;;;;;;;;11.40;66.70;;;;;;2088315;28;1357;-48
2021/03/16 06:23:04;;;;;;;;;;;11.40;66.70;;;;;;2088824;28;1164;-48
2021/03/16 06:24:42;;;;;;;;;;;11.40;67.50;;;;;;2089166;28;1035;-51
2021/03/16 06:26:22;;;;;;;;;;;11.40;66.90;;;;;;2089845;28;1186;-51
2021/03/16 06:28:04;;;;;;;;;;;11.40;67.00;;;;;;2088568;28;1436;-48
2021/03/16 06:29:42;;;;;;;;;;;11.40;67.10;;;;;;2087786;28;1305;-50
2021/03/16 06:31:21;;;;;;;;;;;11.40;66.60;;;;;;2088975;28;1121;-49
2021/03/16 06:32:59;;;;;;;;;;;11.40;66.50;;;;;;2090234;28;1136;-46
2021/03/16 06:34:37;;;;;;;;;;;11.40;67.00;;;;;;2087975;28;1178;-51
2021/03/16 06:36:16;;;;;;;;;;;11.40;67.10;;;;;;2090834;28;1326;-47
2021/03/16 06:38:00;;;;;;;;;;;11.40;67.50;;;;;;2090249;28;1388;-48
2021/03/16 06:39:42;;;;;;;;;;;11.40;68.30;;;;;;2088369;28;1148;-45
2021/03/16 06:41:20;;;;;;;;;;;11.40;67.60;;;;;;2090087;28;1170;-53
2021/03/16 06:43:05;;;;;;;;;;;11.40;67.70;;;;;;2088747;28;1170;-46
2021/03/16 06:44:43;;;;;;;;;;;11.40;67.60;;;;;;2088698;28;1164;-46
2021/03/16 06:46:37;;;;;;;;;;;11.40;67.60;;;;;;2089955;28;1168;-49
2021/03/16 06:48:16;;;;;;;;;;;11.40;67.60;;;;;;2088722;28;1419;-50
2021/03/16 06:49:54;;;;;;;;;;;11.40;67.60;;;;;;2079852;28;1360;-50
2021/03/16 06:51:32;;;;;;;;;;;11.40;67.70;;;;;;2089223;28;1167;-47
2021/03/16 06:53:19;;;;;;;;;;;11.40;67.60;;;;;;2089806;28;1278;-47
2021/03/16 06:55:09;;;;;;;;;;;11.40;67.50;;;;;;2087957;28;1463;-47
2021/03/16 06:56:54;;;;;;;;;;;11.30;67.40;;;;;;2089051;28;1304;-47
2021/03/16 06:58:33;;;;;;;;;;;11.40;67.40;;;;;;2089519;28;1435;-47
2021/03/16 07:00:11;;;;;;;;;;;11.40;67.50;;;;;;2087678;28;1260;-47
2021/03/16 07:01:49;;;;;;;;;;;11.40;67.40;;;;;;2091510;28;1268;-46
2021/03/16 07:03:27;;;;;;;;;;;11.40;67.30;;;;;;2089655;28;1271;-47
2021/03/16 07:05:06;;;;;;;;;;;11.40;67.20;;;;;;2089859;28;1464;-48
2021/03/16 07:06:44;;;;;;;;;;;11.50;67.00;;;;;;2088634;28;1244;-47
2021/03/16 07:08:22;;;;;;;;;;;11.60;66.70;;;;;;2091066;28;1873;-48
2021/03/16 07:10:00;;;;;;;;;;;11.60;66.20;;;;;;2091552;28;1267;-47
2021/03/16 07:11:39;;;;;;;;;;;11.70;66.00;;;;;;2092014;28;1399;-47
2021/03/16 07:13:17;;;;;;;;;;;11.80;65.60;;;;;;2090164;28;1265;-47
2021/03/16 07:14:55;;;;;;;;;;;11.80;65.60;;;;;;2090685;28;1243;-46
2021/03/16 07:16:34;;;;;;;;;;;11.90;64.40;;;;;;2089938;28;1174;-47
2021/03/16 07:18:12;;;;;;;;;;;11.90;63.90;;;;;;2088629;28;1965;-47
2021/03/16 07:19:50;;;;;;;;;;;12.00;63.70;;;;;;2091493;28;1529;-47
2021/03/16 07:21:39;;;;;;;;;;;12.10;63.20;;;;;;2090442;28;1435;-52
2021/03/16 07:23:17;;;;;;;;;;;12.10;62.70;;;;;;2089298;28;1528;-47
2021/03/16 07:24:55;;;;;;;;;;;12.20;62.40;;;;;;2088655;28;1235;-47
2021/03/16 07:26:33;;;;;;;;;;;12.30;62.00;;;;;;2089374;28;1365;-47
2021/03/16 07:28:11;;;;;;;;;;;12.30;61.50;;;;;;2081654;28;1408;-47
2021/03/16 07:29:50;;;;;;;;;;;12.40;61.20;;;;;;2088388;28;1390;-46
2021/03/16 07:31:28;;;;;;;;;;;12.50;60.90;;;;;;2091190;28;1391;-46
2021/03/16 07:33:06;;;;;;;;;;;12.60;60.50;;;;;;2090623;28;1344;-47
2021/03/16 07:34:44;;;;;;;;;;;12.60;60.90;;;;;;2092739;28;1419;-46
2021/03/16 07:36:23;;;;;;;;;;;12.70;59.80;;;;;;2090589;28;1082;-45
2021/03/16 07:38:01;;;;;;;;;;;12.80;59.60;;;;;;2090162;28;1928;-47
2021/03/16 07:39:39;;;;;;;;;;;12.80;59.90;;;;;;2078894;28;1186;-45
2021/03/16 07:41:17;;;;;;;;;;;12.90;59.10;;;;;;2088315;28;1244;-45
2021/03/16 07:42:55;;;;;;;;;;;12.90;58.80;;;;;;2091653;28;1415;-45
2021/03/16 07:44:40;;;;;;;;;;;13.00;58.60;;;;;;2093578;28;1096;-45
2021/03/16 07:46:18;;;;;;;;;;;13.10;58.60;;;;;;2089815;28;1071;-45
2021/03/16 07:47:56;;;;;;;;;;;13.20;58.30;;;;;;2095277;28;1490;-46
2021/03/16 07:49:35;;;;;;;;;;;13.20;58.10;;;;;;2090549;28;995;-45
2021/03/16 07:51:15;;;;;;;;;;;13.30;57.90;;;;;;2089293;28;1225;-48
2021/03/16 07:52:53;;;;;;;;;;;13.30;57.80;;;;;;2088967;28;1354;-46
2021/03/16 07:54:36;;;;;;;;;;;13.30;57.70;;;;;;2089069;28;1380;-46
2021/03/16 07:56:22;;;;;;;;;;;13.40;57.80;;;;;;2088920;28;1216;-46
2021/03/16 07:58:06;;;;;;;;;;;13.30;57.80;;;;;;2091475;28;1645;-46
2021/03/16 07:59:44;;;;;;;;;;;13.30;57.90;;;;;;2088077;28;1176;-46
2021/03/16 08:01:22;;;;;;;;;;;13.40;58.00;;;;;;2089903;28;1221;-46
2021/03/16 08:03:02;;;;;;;;;;;13.30;57.90;;;;;;2090618;28;1207;-46
2021/03/16 08:04:40;;;;;;;;;;;13.40;58.00;;;;;;2090901;28;1296;-46
2021/03/16 08:06:22;;;;;;;;;;;13.40;57.90;;;;;;2090288;28;1173;-46
2021/03/16 08:08:00;;;;;;;;;;;13.50;57.90;;;;;;2091335;28;1431;-47
2021/03/16 08:09:44;;;;;;;;;;;13.50;57.90;;;;;;2090768;28;1332;-50
2021/03/16 08:11:22;;;;;;;;;;;13.60;58.10;;;;;;2090658;28;1231;-47
2021/03/16 08:13:01;;;;;;;;;;;13.70;58.00;;;;;;2091236;28;1486;-45
2021/03/16 08:14:39;;;;;;;;;;;13.80;58.10;;;;;;2090099;28;1443;-45
2021/03/16 08:16:17;;;;;;;;;;;13.80;57.80;;;;;;2092592;28;1184;-47
2021/03/16 08:18:01;;;;;;;;;;;13.90;57.70;;;;;;2092517;28;1658;-47
2021/03/16 08:19:39;;;;;;;;;;;13.90;57.50;;;;;;2090333;28;1096;-47
2021/03/16 08:21:17;;;;;;;;;;;14.00;57.30;;;;;;2089505;28;1299;-48
2021/03/16 08:23:04;;;;;;;;;;;14.10;57.20;;;;;;2091663;28;1312;-47
2021/03/16 08:24:42;;;;;;;;;;;14.10;56.90;;;;;;2090851;28;1050;-48
2021/03/16 08:26:20;;;;;;;;;;;14.20;56.90;;;;;;2091972;28;1200;-49
2021/03/16 08:27:59;;;;;;;;;;;14.30;56.60;;;;;;2091152;28;1438;-47
2021/03/16 08:29:41;;;;;;;;;;;14.40;56.50;;;;;;2089389;28;1113;-45
2021/03/16 08:31:19;;;;;;;;;;;14.40;56.20;;;;;;2090598;28;1179;-47
2021/03/16 08:32:57;;;;;;;;;;;14.50;56.10;;;;;;2089468;28;1081;-48
2021/03/16 08:34:35;;;;;;;;;;;14.60;56.00;;;;;;2091558;28;1254;-46
2021/03/16 08:36:13;;;;;;;;;;;14.70;55.90;;;;;;2089911;28;1351;-45
2021/03/16 08:37:52;;;;;;;;;;;14.70;55.70;;;;;;2090954;28;1510;-47
2021/03/16 08:39:30;;;;;;;;;;;14.80;55.60;;;;;;2090742;28;1412;-46
2021/03/16 08:41:10;;;;;;;;;;;14.80;55.50;;;;;;2087296;28;1180;-47
2021/03/16 08:42:48;;;;;;;;;;;14.90;55.30;;;;;;2091452;28;1195;-48
2021/03/16 08:44:27;;;;;;;;;;;14.90;55.20;;;;;;2090681;28;1146;-45
2021/03/16 08:46:05;;;;;;;;;;;15.00;55.20;;;;;;2090738;28;1177;-46
2021/03/16 08:47:43;;;;;;;;;;;15.00;55.00;;;;;;2089088;28;1756;-48
2021/03/16 08:49:22;;;;;;;;;;;15.10;55.00;;;;;;2090509;28;1197;-48
2021/03/16 08:51:00;;;;;;;;;;;15.20;55.50;;;;;;2090346;28;1242;-47
2021/03/16 08:52:38;;;;;;;;;;;15.20;54.80;;;;;;2088276;28;1175;-48
2021/03/16 08:54:26;;;;;;;;;;;15.30;54.70;;;;;;2090468;28;1930;-48
2021/03/16 08:56:04;;;;;;;;;;;15.40;54.60;;;;;;2092911;28;1271;-47
2021/03/16 08:57:42;;;;;;;;;;;15.40;54.50;;;;;;2089431;28;1396;-47
2021/03/16 08:59:21;;;;;;;;;;;15.40;54.40;;;;;;2093099;28;1257;-48
2021/03/16 09:00:59;;;;;;;;;;;15.50;54.40;;;;;;2092774;28;1038;-47
2021/03/16 09:02:39;;;;;;;;;;;15.50;54.40;;;;;;2089959;28;1273;-46
2021/03/16 09:04:18;;;;;;;;;;;15.50;54.30;;;;;;2088336;28;1156;-47
2021/03/16 09:05:56;;;;;;;;;;;15.60;54.40;;;;;;2088456;28;1423;-47
2021/03/16 09:07:38;;;;;;;;;;;15.70;54.30;;;;;;2088410;28;1135;-47
2021/03/16 09:09:22;;;;;;;;;;;15.70;54.20;;;;;;2088910;28;1187;-47
2021/03/16 09:11:02;;;;;;;;;;;15.80;54.10;;;;;;2092125;28;1172;-48
2021/03/16 09:12:43;;;;;;;;;;;15.80;54.00;;;;;;2089886;28;1182;-47
2021/03/16 09:14:22;;;;;;;;;;;15.90;54.00;;;;;;2096338;28;1960;-48
2021/03/16 09:16:01;;;;;;;;;;;15.90;53.90;;;;;;2094857;28;1496;-47
2021/03/16 09:17:39;;;;;;;;;;;15.90;53.80;;;;;;2089535;28;1429;-46
2021/03/16 09:19:19;;;;;;;;;;;15.90;53.80;;;;;;2097521;28;1095;-46